sensor_id;sensor_type;location;lat;lon;timestamp;P1;durP1;ratioP1;P2;durP2;ratioP2
38859;SDS011;24609;48.316;16.174;2023-04-24T00:00:34;7.18;;;2.95;;
38859;SDS011;24609;48.316;16.174;2023-04-24T00:03:01;7.28;;;3.05;;
38859;SDS011;24609;48.316;16.174;2023-04-24T00:05:28;5.07;;;2.75;;
38859;SDS011;24609;48.316;16.174;2023-04-24T00:07:53;7.60;;;3.40;;
38859;SDS011;24609;48.316;16.174;2023-04-24T00:10:20;4.07;;;2.88;;
38859;SDS011;24609;48.316;16.174;2023-04-24T00:12:46;3.85;;;2.30;;
38859;SDS011;24609;48.316;16.174;2023-04-24T00:15:12;5.78;;;3.00;;
38859;SDS011;24609;48.316;16.174;2023-04-24T00:17:38;5.72;;;2.95;;
38859;SDS011;24609;48.316;16.174;2023-04-24T00:20:04;3.20;;;2.25;;
38859;SDS011;24609;48.316;16.174;2023-04-24T00:22:31;3.92;;;3.00;;
38859;SDS011;24609;48.316;16.174;2023-04-24T00:24:58;3.75;;;2.78;;
38859;SDS011;24609;48.316;16.174;2023-04-24T00:27:23;4.45;;;2.90;;
38859;SDS011;24609;48.316;16.174;2023-04-24T00:29:50;6.43;;;3.67;;
38859;SDS011;24609;48.316;16.174;2023-04-24T00:32:15;5.80;;;3.35;;
38859;SDS011;24609;48.316;16.174;2023-04-24T00:34:42;7.72;;;2.92;;
38859;SDS011;24609;48.316;16.174;2023-04-24T00:37:08;4.57;;;3.00;;
38859;SDS011;24609;48.316;16.174;2023-04-24T00:39:33;5.68;;;4.22;;
38859;SDS011;24609;48.316;16.174;2023-04-24T00:41:59;4.75;;;3.40;;
38859;SDS011;24609;48.316;16.174;2023-04-24T00:44:26;7.63;;;3.55;;
38859;SDS011;24609;48.316;16.174;2023-04-24T00:46:52;5.85;;;2.67;;
38859;SDS011;24609;48.316;16.174;2023-04-24T00:49:20;6.22;;;3.30;;
38859;SDS011;24609;48.316;16.174;2023-04-24T00:51:47;7.45;;;3.10;;
38859;SDS011;24609;48.316;16.174;2023-04-24T00:54:14;9.02;;;3.22;;
38859;SDS011;24609;48.316;16.174;2023-04-24T00:56:41;5.28;;;3.03;;
38859;SDS011;24609;48.316;16.174;2023-04-24T00:59:07;5.80;;;2.83;;
38859;SDS011;24609;48.316;16.174;2023-04-24T01:01:33;5.53;;;2.72;;
38859;SDS011;24609;48.316;16.174;2023-04-24T01:04:00;7.05;;;4.07;;
38859;SDS011;24609;48.316;16.174;2023-04-24T01:06:27;6.65;;;3.42;;
38859;SDS011;24609;48.316;16.174;2023-04-24T01:08:56;5.68;;;4.53;;
38859;SDS011;24609;48.316;16.174;2023-04-24T01:11:24;4.57;;;3.17;;
38859;SDS011;24609;48.316;16.174;2023-04-24T01:13:50;7.28;;;3.25;;
38859;SDS011;24609;48.316;16.174;2023-04-24T01:16:17;5.55;;;3.58;;
38859;SDS011;24609;48.316;16.174;2023-04-24T01:18:45;7.22;;;3.20;;
38859;SDS011;24609;48.316;16.174;2023-04-24T01:21:11;5.13;;;3.10;;
38859;SDS011;24609;48.316;16.174;2023-04-24T01:23:39;4.18;;;2.97;;
38859;SDS011;24609;48.316;16.174;2023-04-24T01:26:05;5.35;;;3.50;;
38859;SDS011;24609;48.316;16.174;2023-04-24T01:28:31;5.38;;;2.92;;
38859;SDS011;24609;48.316;16.174;2023-04-24T01:30:57;6.28;;;3.25;;
38859;SDS011;24609;48.316;16.174;2023-04-24T01:33:24;4.10;;;2.50;;
38859;SDS011;24609;48.316;16.174;2023-04-24T01:35:50;5.75;;;3.25;;
38859;SDS011;24609;48.316;16.174;2023-04-24T01:38:16;4.15;;;3.17;;
38859;SDS011;24609;48.316;16.174;2023-04-24T01:40:42;5.45;;;2.72;;
38859;SDS011;24609;48.316;16.174;2023-04-24T01:43:08;5.47;;;3.13;;
38859;SDS011;24609;48.316;16.174;2023-04-24T01:45:34;7.10;;;4.07;;
38859;SDS011;24609;48.316;16.174;2023-04-24T01:48:00;6.38;;;3.50;;
38859;SDS011;24609;48.316;16.174;2023-04-24T01:50:26;8.93;;;3.78;;
38859;SDS011;24609;48.316;16.174;2023-04-24T01:52:52;6.13;;;3.40;;
38859;SDS011;24609;48.316;16.174;2023-04-24T01:55:17;5.82;;;3.30;;
38859;SDS011;24609;48.316;16.174;2023-04-24T01:57:43;6.20;;;3.15;;
38859;SDS011;24609;48.316;16.174;2023-04-24T02:00:09;4.68;;;3.05;;
38859;SDS011;24609;48.316;16.174;2023-04-24T02:02:37;5.72;;;2.95;;
38859;SDS011;24609;48.316;16.174;2023-04-24T02:05:05;7.60;;;4.13;;
38859;SDS011;24609;48.316;16.174;2023-04-24T02:07:32;6.70;;;3.07;;
38859;SDS011;24609;48.316;16.174;2023-04-24T02:09:58;4.90;;;2.95;;
38859;SDS011;24609;48.316;16.174;2023-04-24T02:12:24;4.53;;;3.10;;
38859;SDS011;24609;48.316;16.174;2023-04-24T02:14:50;4.72;;;3.05;;
38859;SDS011;24609;48.316;16.174;2023-04-24T02:17:15;6.75;;;3.63;;
38859;SDS011;24609;48.316;16.174;2023-04-24T02:19:41;5.57;;;3.97;;
38859;SDS011;24609;48.316;16.174;2023-04-24T02:22:07;5.60;;;3.20;;
38859;SDS011;24609;48.316;16.174;2023-04-24T02:24:33;6.32;;;4.13;;
38859;SDS011;24609;48.316;16.174;2023-04-24T02:26:58;8.88;;;3.78;;
38859;SDS011;24609;48.316;16.174;2023-04-24T02:29:25;6.13;;;3.53;;
38859;SDS011;24609;48.316;16.174;2023-04-24T02:31:50;6.95;;;3.90;;
38859;SDS011;24609;48.316;16.174;2023-04-24T02:34:16;6.72;;;3.38;;
38859;SDS011;24609;48.316;16.174;2023-04-24T02:36:42;6.60;;;4.03;;
38859;SDS011;24609;48.316;16.174;2023-04-24T02:39:07;4.63;;;3.05;;
38859;SDS011;24609;48.316;16.174;2023-04-24T02:41:33;8.90;;;3.05;;
38859;SDS011;24609;48.316;16.174;2023-04-24T02:43:59;6.43;;;3.55;;
38859;SDS011;24609;48.316;16.174;2023-04-24T02:46:25;6.40;;;4.25;;
38859;SDS011;24609;48.316;16.174;2023-04-24T02:48:51;4.18;;;2.70;;
38859;SDS011;24609;48.316;16.174;2023-04-24T02:51:17;8.13;;;3.65;;
38859;SDS011;24609;48.316;16.174;2023-04-24T02:53:42;3.83;;;2.78;;
38859;SDS011;24609;48.316;16.174;2023-04-24T02:56:08;3.55;;;2.38;;
38859;SDS011;24609;48.316;16.174;2023-04-24T02:58:37;10.85;;;3.22;;
38859;SDS011;24609;48.316;16.174;2023-04-24T03:01:02;4.20;;;2.83;;
38859;SDS011;24609;48.316;16.174;2023-04-24T03:03:28;4.10;;;2.97;;
38859;SDS011;24609;48.316;16.174;2023-04-24T03:05:54;4.60;;;3.22;;
38859;SDS011;24609;48.316;16.174;2023-04-24T03:08:20;4.38;;;3.03;;
38859;SDS011;24609;48.316;16.174;2023-04-24T03:10:46;5.55;;;2.88;;
38859;SDS011;24609;48.316;16.174;2023-04-24T03:13:11;4.00;;;2.40;;
38859;SDS011;24609;48.316;16.174;2023-04-24T03:15:37;4.88;;;2.88;;
38859;SDS011;24609;48.316;16.174;2023-04-24T03:18:03;4.93;;;2.53;;
38859;SDS011;24609;48.316;16.174;2023-04-24T03:20:29;4.35;;;3.25;;
38859;SDS011;24609;48.316;16.174;2023-04-24T03:22:54;5.75;;;3.05;;
38859;SDS011;24609;48.316;16.174;2023-04-24T03:25:21;7.13;;;3.75;;
38859;SDS011;24609;48.316;16.174;2023-04-24T03:27:47;7.75;;;3.25;;
38859;SDS011;24609;48.316;16.174;2023-04-24T03:30:12;5.07;;;3.47;;
38859;SDS011;24609;48.316;16.174;2023-04-24T03:32:38;5.55;;;3.60;;
38859;SDS011;24609;48.316;16.174;2023-04-24T03:35:05;6.10;;;3.60;;
38859;SDS011;24609;48.316;16.174;2023-04-24T03:37:33;4.32;;;3.42;;
38859;SDS011;24609;48.316;16.174;2023-04-24T03:39:59;8.38;;;3.00;;
38859;SDS011;24609;48.316;16.174;2023-04-24T03:42:25;5.53;;;2.83;;
38859;SDS011;24609;48.316;16.174;2023-04-24T03:44:51;5.20;;;3.33;;
38859;SDS011;24609;48.316;16.174;2023-04-24T03:47:17;5.32;;;2.78;;
38859;SDS011;24609;48.316;16.174;2023-04-24T03:49:42;5.45;;;3.38;;
38859;SDS011;24609;48.316;16.174;2023-04-24T03:52:08;4.03;;;3.10;;
38859;SDS011;24609;48.316;16.174;2023-04-24T03:54:33;4.25;;;3.13;;
38859;SDS011;24609;48.316;16.174;2023-04-24T03:56:59;8.68;;;3.15;;
38859;SDS011;24609;48.316;16.174;2023-04-24T03:59:26;4.85;;;3.08;;
38859;SDS011;24609;48.316;16.174;2023-04-24T04:01:52;4.82;;;3.25;;
38859;SDS011;24609;48.316;16.174;2023-04-24T04:04:17;7.78;;;2.67;;
38859;SDS011;24609;48.316;16.174;2023-04-24T04:06:43;4.05;;;2.60;;
38859;SDS011;24609;48.316;16.174;2023-04-24T04:09:09;4.07;;;2.78;;
38859;SDS011;24609;48.316;16.174;2023-04-24T04:11:35;4.18;;;2.40;;
38859;SDS011;24609;48.316;16.174;2023-04-24T04:14:01;4.03;;;2.58;;
38859;SDS011;24609;48.316;16.174;2023-04-24T04:16:27;4.85;;;2.63;;
38859;SDS011;24609;48.316;16.174;2023-04-24T04:18:53;5.10;;;2.30;;
38859;SDS011;24609;48.316;16.174;2023-04-24T04:21:19;4.47;;;2.58;;
38859;SDS011;24609;48.316;16.174;2023-04-24T04:23:44;5.50;;;2.40;;
38859;SDS011;24609;48.316;16.174;2023-04-24T04:26:10;5.88;;;2.38;;
38859;SDS011;24609;48.316;16.174;2023-04-24T04:28:37;2.90;;;2.25;;
38859;SDS011;24609;48.316;16.174;2023-04-24T04:31:04;4.75;;;2.65;;
38859;SDS011;24609;48.316;16.174;2023-04-24T04:33:29;2.65;;;2.00;;
38859;SDS011;24609;48.316;16.174;2023-04-24T04:35:56;8.93;;;2.33;;
38859;SDS011;24609;48.316;16.174;2023-04-24T04:38:21;2.88;;;2.03;;
38859;SDS011;24609;48.316;16.174;2023-04-24T04:40:47;3.88;;;2.05;;
38859;SDS011;24609;48.316;16.174;2023-04-24T04:43:14;2.95;;;2.13;;
38859;SDS011;24609;48.316;16.174;2023-04-24T04:45:42;4.40;;;2.38;;
38859;SDS011;24609;48.316;16.174;2023-04-24T04:48:09;7.68;;;2.40;;
38859;SDS011;24609;48.316;16.174;2023-04-24T04:50:37;4.57;;;2.65;;
38859;SDS011;24609;48.316;16.174;2023-04-24T04:53:03;3.17;;;2.00;;
38859;SDS011;24609;48.316;16.174;2023-04-24T04:55:30;5.28;;;2.65;;
38859;SDS011;24609;48.316;16.174;2023-04-24T04:57:56;4.30;;;2.22;;
38859;SDS011;24609;48.316;16.174;2023-04-24T05:00:22;3.08;;;2.35;;
38859;SDS011;24609;48.316;16.174;2023-04-24T05:02:50;3.33;;;1.88;;
38859;SDS011;24609;48.316;16.174;2023-04-24T05:05:16;5.18;;;2.15;;
38859;SDS011;24609;48.316;16.174;2023-04-24T05:07:42;3.33;;;2.20;;
38859;SDS011;24609;48.316;16.174;2023-04-24T05:10:08;4.55;;;2.67;;
38859;SDS011;24609;48.316;16.174;2023-04-24T05:12:34;3.22;;;2.38;;
38859;SDS011;24609;48.316;16.174;2023-04-24T05:15:00;4.88;;;2.30;;
38859;SDS011;24609;48.316;16.174;2023-04-24T05:17:26;5.55;;;2.20;;
38859;SDS011;24609;48.316;16.174;2023-04-24T05:19:52;3.35;;;2.30;;
38859;SDS011;24609;48.316;16.174;2023-04-24T05:22:17;3.55;;;2.33;;
38859;SDS011;24609;48.316;16.174;2023-04-24T05:24:45;3.95;;;1.88;;
38859;SDS011;24609;48.316;16.174;2023-04-24T05:27:12;3.17;;;2.03;;
38859;SDS011;24609;48.316;16.174;2023-04-24T05:29:37;4.65;;;2.28;;
38859;SDS011;24609;48.316;16.174;2023-04-24T05:32:03;3.30;;;2.35;;
38859;SDS011;24609;48.316;16.174;2023-04-24T05:34:29;3.92;;;1.95;;
38859;SDS011;24609;48.316;16.174;2023-04-24T05:36:55;3.05;;;2.30;;
38859;SDS011;24609;48.316;16.174;2023-04-24T05:39:20;4.05;;;2.55;;
38859;SDS011;24609;48.316;16.174;2023-04-24T05:41:46;3.00;;;2.28;;
38859;SDS011;24609;48.316;16.174;2023-04-24T05:44:12;3.10;;;2.08;;
38859;SDS011;24609;48.316;16.174;2023-04-24T05:46:37;3.35;;;2.03;;
38859;SDS011;24609;48.316;16.174;2023-04-24T05:49:03;2.13;;;1.70;;
38859;SDS011;24609;48.316;16.174;2023-04-24T05:51:29;3.53;;;1.80;;
38859;SDS011;24609;48.316;16.174;2023-04-24T05:53:56;3.63;;;1.92;;
38859;SDS011;24609;48.316;16.174;2023-04-24T05:56:22;2.28;;;1.33;;
38859;SDS011;24609;48.316;16.174;2023-04-24T05:58:48;2.75;;;1.80;;
38859;SDS011;24609;48.316;16.174;2023-04-24T06:01:14;2.88;;;1.70;;
38859;SDS011;24609;48.316;16.174;2023-04-24T06:03:40;2.63;;;1.83;;
38859;SDS011;24609;48.316;16.174;2023-04-24T06:06:06;5.90;;;2.15;;
38859;SDS011;24609;48.316;16.174;2023-04-24T06:08:33;2.67;;;1.73;;
38859;SDS011;24609;48.316;16.174;2023-04-24T06:11:00;4.22;;;2.10;;
38859;SDS011;24609;48.316;16.174;2023-04-24T06:13:25;3.08;;;1.92;;
38859;SDS011;24609;48.316;16.174;2023-04-24T06:15:52;2.88;;;2.08;;
38859;SDS011;24609;48.316;16.174;2023-04-24T06:18:18;3.83;;;2.20;;
38859;SDS011;24609;48.316;16.174;2023-04-24T06:20:44;6.63;;;2.40;;
38859;SDS011;24609;48.316;16.174;2023-04-24T06:23:10;3.53;;;2.30;;
38859;SDS011;24609;48.316;16.174;2023-04-24T06:25:36;3.63;;;2.03;;
38859;SDS011;24609;48.316;16.174;2023-04-24T06:28:02;3.65;;;2.00;;
38859;SDS011;24609;48.316;16.174;2023-04-24T06:30:28;2.38;;;1.70;;
38859;SDS011;24609;48.316;16.174;2023-04-24T06:32:54;3.10;;;1.73;;
38859;SDS011;24609;48.316;16.174;2023-04-24T06:35:20;3.00;;;1.83;;
38859;SDS011;24609;48.316;16.174;2023-04-24T06:37:46;3.72;;;2.22;;
38859;SDS011;24609;48.316;16.174;2023-04-24T06:40:11;3.42;;;2.00;;
38859;SDS011;24609;48.316;16.174;2023-04-24T06:42:37;4.63;;;2.03;;
38859;SDS011;24609;48.316;16.174;2023-04-24T06:45:03;4.20;;;2.08;;
38859;SDS011;24609;48.316;16.174;2023-04-24T06:47:30;3.42;;;1.67;;
38859;SDS011;24609;48.316;16.174;2023-04-24T06:49:55;2.95;;;2.00;;
38859;SDS011;24609;48.316;16.174;2023-04-24T06:52:21;3.00;;;2.15;;
38859;SDS011;24609;48.316;16.174;2023-04-24T06:54:47;4.22;;;2.13;;
38859;SDS011;24609;48.316;16.174;2023-04-24T06:57:12;1.88;;;1.60;;
38859;SDS011;24609;48.316;16.174;2023-04-24T06:59:38;4.20;;;1.83;;
38859;SDS011;24609;48.316;16.174;2023-04-24T07:02:04;2.63;;;1.80;;
38859;SDS011;24609;48.316;16.174;2023-04-24T07:04:30;3.40;;;1.80;;
38859;SDS011;24609;48.316;16.174;2023-04-24T07:06:56;2.97;;;1.70;;
38859;SDS011;24609;48.316;16.174;2023-04-24T07:09:23;3.25;;;1.70;;
38859;SDS011;24609;48.316;16.174;2023-04-24T07:11:50;5.35;;;2.10;;
38859;SDS011;24609;48.316;16.174;2023-04-24T07:14:17;5.55;;;2.20;;
38859;SDS011;24609;48.316;16.174;2023-04-24T07:16:42;3.08;;;1.98;;
38859;SDS011;24609;48.316;16.174;2023-04-24T07:19:08;3.22;;;1.80;;
38859;SDS011;24609;48.316;16.174;2023-04-24T07:21:34;2.70;;;1.95;;
38859;SDS011;24609;48.316;16.174;2023-04-24T07:24:00;2.90;;;2.17;;
38859;SDS011;24609;48.316;16.174;2023-04-24T07:26:26;3.88;;;2.10;;
38859;SDS011;24609;48.316;16.174;2023-04-24T07:28:53;2.28;;;1.90;;
38859;SDS011;24609;48.316;16.174;2023-04-24T07:31:19;2.75;;;2.00;;
38859;SDS011;24609;48.316;16.174;2023-04-24T07:33:44;4.35;;;2.40;;
38859;SDS011;24609;48.316;16.174;2023-04-24T07:36:10;2.80;;;1.80;;
38859;SDS011;24609;48.316;16.174;2023-04-24T07:38:41;3.35;;;1.63;;
38859;SDS011;24609;48.316;16.174;2023-04-24T07:41:07;2.08;;;1.65;;
38859;SDS011;24609;48.316;16.174;2023-04-24T07:43:32;7.72;;;1.75;;
38859;SDS011;24609;48.316;16.174;2023-04-24T07:45:58;2.85;;;1.50;;
38859;SDS011;24609;48.316;16.174;2023-04-24T07:48:24;2.03;;;1.60;;
38859;SDS011;24609;48.316;16.174;2023-04-24T07:50:51;2.28;;;1.40;;
38859;SDS011;24609;48.316;16.174;2023-04-24T07:53:17;2.08;;;1.40;;
38859;SDS011;24609;48.316;16.174;2023-04-24T07:55:43;1.73;;;1.48;;
38859;SDS011;24609;48.316;16.174;2023-04-24T07:58:08;2.10;;;1.52;;
38859;SDS011;24609;48.316;16.174;2023-04-24T08:00:34;2.08;;;1.63;;
38859;SDS011;24609;48.316;16.174;2023-04-24T08:03:00;1.80;;;1.50;;
38859;SDS011;24609;48.316;16.174;2023-04-24T08:05:26;2.00;;;1.70;;
38859;SDS011;24609;48.316;16.174;2023-04-24T08:07:53;8.52;;;1.83;;
38859;SDS011;24609;48.316;16.174;2023-04-24T08:10:20;2.05;;;1.73;;
38859;SDS011;24609;48.316;16.174;2023-04-24T08:12:47;1.83;;;1.50;;
38859;SDS011;24609;48.316;16.174;2023-04-24T08:15:12;2.00;;;1.33;;
38859;SDS011;24609;48.316;16.174;2023-04-24T08:17:38;3.42;;;1.73;;
38859;SDS011;24609;48.316;16.174;2023-04-24T08:20:04;2.25;;;1.27;;
38859;SDS011;24609;48.316;16.174;2023-04-24T08:22:35;5.00;;;1.45;;
38859;SDS011;24609;48.316;16.174;2023-04-24T08:25:00;6.93;;;1.27;;
38859;SDS011;24609;48.316;16.174;2023-04-24T08:27:27;1.35;;;1.00;;
38859;SDS011;24609;48.316;16.174;2023-04-24T08:29:53;1.23;;;0.90;;
38859;SDS011;24609;48.316;16.174;2023-04-24T08:32:19;1.30;;;0.90;;
38859;SDS011;24609;48.316;16.174;2023-04-24T08:34:45;0.80;;;0.70;;
38859;SDS011;24609;48.316;16.174;2023-04-24T08:37:11;4.03;;;1.08;;
38859;SDS011;24609;48.316;16.174;2023-04-24T08:39:37;1.05;;;0.80;;
38859;SDS011;24609;48.316;16.174;2023-04-24T08:42:03;1.90;;;0.90;;
38859;SDS011;24609;48.316;16.174;2023-04-24T08:44:32;0.70;;;0.50;;
38859;SDS011;24609;48.316;16.174;2023-04-24T08:47:00;0.93;;;0.80;;
38859;SDS011;24609;48.316;16.174;2023-04-24T08:49:27;0.73;;;0.70;;
38859;SDS011;24609;48.316;16.174;2023-04-24T08:51:54;0.65;;;0.50;;
38859;SDS011;24609;48.316;16.174;2023-04-24T08:54:20;0.55;;;0.50;;
38859;SDS011;24609;48.316;16.174;2023-04-24T08:56:47;1.33;;;0.50;;
38859;SDS011;24609;48.316;16.174;2023-04-24T08:59:14;0.55;;;0.55;;
38859;SDS011;24609;48.316;16.174;2023-04-24T09:01:40;1.38;;;0.70;;
38859;SDS011;24609;48.316;16.174;2023-04-24T09:04:07;2.80;;;0.85;;
38859;SDS011;24609;48.316;16.174;2023-04-24T09:06:38;2.38;;;0.65;;
38859;SDS011;24609;48.316;16.174;2023-04-24T09:09:05;0.55;;;0.40;;
38859;SDS011;24609;48.316;16.174;2023-04-24T09:11:32;0.40;;;0.40;;
38859;SDS011;24609;48.316;16.174;2023-04-24T09:13:58;0.32;;;0.32;;
38859;SDS011;24609;48.316;16.174;2023-04-24T09:16:24;0.40;;;0.35;;
38859;SDS011;24609;48.316;16.174;2023-04-24T09:18:51;1.15;;;0.57;;
38859;SDS011;24609;48.316;16.174;2023-04-24T09:21:17;1.58;;;1.05;;
38859;SDS011;24609;48.316;16.174;2023-04-24T09:23:45;0.93;;;0.65;;
38859;SDS011;24609;48.316;16.174;2023-04-24T09:26:10;0.70;;;0.60;;
38859;SDS011;24609;48.316;16.174;2023-04-24T09:28:37;0.40;;;0.40;;
38859;SDS011;24609;48.316;16.174;2023-04-24T09:31:14;2.22;;;0.63;;
38859;SDS011;24609;48.316;16.174;2023-04-24T09:34:02;1.60;;;0.60;;
38859;SDS011;24609;48.316;16.174;2023-04-24T09:36:31;1.30;;;0.70;;
38859;SDS011;24609;48.316;16.174;2023-04-24T09:39:04;0.60;;;0.60;;
38859;SDS011;24609;48.316;16.174;2023-04-24T09:41:33;0.60;;;0.50;;
38859;SDS011;24609;48.316;16.174;2023-04-24T09:44:20;0.80;;;0.73;;
38859;SDS011;24609;48.316;16.174;2023-04-24T09:46:52;0.68;;;0.52;;
38859;SDS011;24609;48.316;16.174;2023-04-24T09:49:23;0.85;;;0.73;;
38859;SDS011;24609;48.316;16.174;2023-04-24T09:52:09;1.40;;;0.80;;
38859;SDS011;24609;48.316;16.174;2023-04-24T09:54:35;0.63;;;0.60;;
38859;SDS011;24609;48.316;16.174;2023-04-24T09:57:02;1.25;;;0.63;;
38859;SDS011;24609;48.316;16.174;2023-04-24T09:59:28;0.70;;;0.70;;
38859;SDS011;24609;48.316;16.174;2023-04-24T10:01:54;1.20;;;0.80;;
38859;SDS011;24609;48.316;16.174;2023-04-24T10:04:23;1.70;;;0.98;;
38859;SDS011;24609;48.316;16.174;2023-04-24T10:06:51;0.57;;;0.52;;
38859;SDS011;24609;48.316;16.174;2023-04-24T10:09:19;0.73;;;0.60;;
38859;SDS011;24609;48.316;16.174;2023-04-24T10:11:48;0.98;;;0.70;;
38859;SDS011;24609;48.316;16.174;2023-04-24T10:14:18;1.80;;;0.70;;
38859;SDS011;24609;48.316;16.174;2023-04-24T10:16:46;1.88;;;0.70;;
38859;SDS011;24609;48.316;16.174;2023-04-24T10:19:16;0.95;;;0.70;;
38859;SDS011;24609;48.316;16.174;2023-04-24T10:21:45;1.25;;;0.77;;
38859;SDS011;24609;48.316;16.174;2023-04-24T10:24:17;0.63;;;0.63;;
38859;SDS011;24609;48.316;16.174;2023-04-24T10:26:46;1.00;;;0.68;;
38859;SDS011;24609;48.316;16.174;2023-04-24T10:29:13;1.67;;;0.80;;
38859;SDS011;24609;48.316;16.174;2023-04-24T10:31:40;1.13;;;0.80;;
38859;SDS011;24609;48.316;16.174;2023-04-24T10:34:07;0.93;;;0.68;;
38859;SDS011;24609;48.316;16.174;2023-04-24T10:36:35;1.27;;;0.90;;
38859;SDS011;24609;48.316;16.174;2023-04-24T10:39:06;1.35;;;0.73;;
38859;SDS011;24609;48.316;16.174;2023-04-24T10:41:37;1.05;;;0.90;;
38859;SDS011;24609;48.316;16.174;2023-04-24T10:44:13;0.77;;;0.60;;
38859;SDS011;24609;48.316;16.174;2023-04-24T10:46:42;3.88;;;1.00;;
38859;SDS011;24609;48.316;16.174;2023-04-24T10:49:09;1.00;;;0.75;;
38859;SDS011;24609;48.316;16.174;2023-04-24T10:51:45;1.23;;;0.80;;
38859;SDS011;24609;48.316;16.174;2023-04-24T10:54:21;0.98;;;0.80;;
38859;SDS011;24609;48.316;16.174;2023-04-24T10:59:45;2.85;;;0.98;;
38859;SDS011;24609;48.316;16.174;2023-04-24T11:02:14;1.15;;;1.02;;
38859;SDS011;24609;48.316;16.174;2023-04-24T11:04:43;1.80;;;1.27;;
38859;SDS011;24609;48.316;16.174;2023-04-24T11:07:10;1.48;;;0.98;;
38859;SDS011;24609;48.316;16.174;2023-04-24T11:09:36;4.97;;;1.00;;
38859;SDS011;24609;48.316;16.174;2023-04-24T11:17:32;1.40;;;1.00;;
38859;SDS011;24609;48.316;16.174;2023-04-24T11:20:09;0.93;;;0.90;;
38859;SDS011;24609;48.316;16.174;2023-04-24T11:22:37;1.13;;;0.80;;
38859;SDS011;24609;48.316;16.174;2023-04-24T11:25:07;0.90;;;0.90;;
38859;SDS011;24609;48.316;16.174;2023-04-24T11:27:41;1.25;;;0.80;;
38859;SDS011;24609;48.316;16.174;2023-04-24T11:30:08;2.75;;;1.50;;
38859;SDS011;24609;48.316;16.174;2023-04-24T11:35:12;2.80;;;1.30;;
38859;SDS011;24609;48.316;16.174;2023-04-24T11:37:44;1.60;;;1.30;;
38859;SDS011;24609;48.316;16.174;2023-04-24T11:40:14;1.38;;;1.08;;
38859;SDS011;24609;48.316;16.174;2023-04-24T11:42:45;3.53;;;1.05;;
38859;SDS011;24609;48.316;16.174;2023-04-24T11:45:15;1.88;;;1.25;;
38859;SDS011;24609;48.316;16.174;2023-04-24T11:47:49;1.75;;;1.30;;
38859;SDS011;24609;48.316;16.174;2023-04-24T11:50:16;3.17;;;1.40;;
38859;SDS011;24609;48.316;16.174;2023-04-24T11:52:44;1.83;;;1.38;;
38859;SDS011;24609;48.316;16.174;2023-04-24T11:57:39;1.80;;;1.30;;
38859;SDS011;24609;48.316;16.174;2023-04-24T12:00:14;2.58;;;1.20;;
38859;SDS011;24609;48.316;16.174;2023-04-24T12:02:41;2.97;;;1.05;;
38859;SDS011;24609;48.316;16.174;2023-04-24T12:05:07;1.42;;;1.25;;
38859;SDS011;24609;48.316;16.174;2023-04-24T12:07:39;2.15;;;1.00;;
38859;SDS011;24609;48.316;16.174;2023-04-24T12:10:09;1.40;;;1.02;;
38859;SDS011;24609;48.316;16.174;2023-04-24T12:12:35;1.05;;;0.80;;
38859;SDS011;24609;48.316;16.174;2023-04-24T12:15:01;0.80;;;0.70;;
38859;SDS011;24609;48.316;16.174;2023-04-24T12:17:32;0.93;;;0.68;;
38859;SDS011;24609;48.316;16.174;2023-04-24T12:25:19;1.15;;;0.90;;
38859;SDS011;24609;48.316;16.174;2023-04-24T12:27:53;1.42;;;1.30;;
38859;SDS011;24609;48.316;16.174;2023-04-24T12:30:20;1.05;;;0.90;;
38859;SDS011;24609;48.316;16.174;2023-04-24T12:32:47;1.50;;;0.80;;
38859;SDS011;24609;48.316;16.174;2023-04-24T12:35:18;1.10;;;0.57;;
38859;SDS011;24609;48.316;16.174;2023-04-24T12:37:48;0.80;;;0.75;;
38859;SDS011;24609;48.316;16.174;2023-04-24T12:40:14;3.35;;;0.80;;
38859;SDS011;24609;48.316;16.174;2023-04-24T12:42:47;2.67;;;0.90;;
38859;SDS011;24609;48.316;16.174;2023-04-24T12:45:15;1.58;;;1.20;;
38859;SDS011;24609;48.316;16.174;2023-04-24T12:47:41;1.77;;;0.95;;
38859;SDS011;24609;48.316;16.174;2023-04-24T12:50:09;1.45;;;0.93;;
38859;SDS011;24609;48.316;16.174;2023-04-24T12:52:40;1.05;;;0.85;;
38859;SDS011;24609;48.316;16.174;2023-04-24T12:55:06;1.83;;;1.33;;
38859;SDS011;24609;48.316;16.174;2023-04-24T12:57:33;2.72;;;1.40;;
38859;SDS011;24609;48.316;16.174;2023-04-24T12:59:59;1.70;;;1.23;;
38859;SDS011;24609;48.316;16.174;2023-04-24T13:02:26;1.20;;;1.05;;
38859;SDS011;24609;48.316;16.174;2023-04-24T13:04:54;2.30;;;1.27;;
38859;SDS011;24609;48.316;16.174;2023-04-24T13:07:20;1.65;;;1.17;;
38859;SDS011;24609;48.316;16.174;2023-04-24T13:09:47;1.00;;;0.80;;
38859;SDS011;24609;48.316;16.174;2023-04-24T13:12:13;1.25;;;1.00;;
38859;SDS011;24609;48.316;16.174;2023-04-24T13:14:39;1.25;;;0.80;;
38859;SDS011;24609;48.316;16.174;2023-04-24T13:17:05;1.27;;;1.02;;
38859;SDS011;24609;48.316;16.174;2023-04-24T13:19:36;1.67;;;1.42;;
38859;SDS011;24609;48.316;16.174;2023-04-24T13:22:03;0.90;;;0.82;;
38859;SDS011;24609;48.316;16.174;2023-04-24T13:24:29;0.98;;;0.82;;
38859;SDS011;24609;48.316;16.174;2023-04-24T13:26:56;2.88;;;1.17;;
38859;SDS011;24609;48.316;16.174;2023-04-24T13:29:22;1.23;;;0.90;;
38859;SDS011;24609;48.316;16.174;2023-04-24T13:31:49;2.28;;;1.30;;
38859;SDS011;24609;48.316;16.174;2023-04-24T13:34:16;1.73;;;1.10;;
38859;SDS011;24609;48.316;16.174;2023-04-24T13:36:43;4.18;;;1.45;;
38859;SDS011;24609;48.316;16.174;2023-04-24T13:39:10;1.58;;;1.08;;
38859;SDS011;24609;48.316;16.174;2023-04-24T13:41:36;1.60;;;1.05;;
38859;SDS011;24609;48.316;16.174;2023-04-24T13:44:02;1.25;;;1.00;;
38859;SDS011;24609;48.316;16.174;2023-04-24T13:46:29;0.85;;;0.80;;
38859;SDS011;24609;48.316;16.174;2023-04-24T13:48:55;0.63;;;0.50;;
38859;SDS011;24609;48.316;16.174;2023-04-24T13:51:22;0.77;;;0.60;;
38859;SDS011;24609;48.316;16.174;2023-04-24T13:53:48;1.73;;;0.65;;
38859;SDS011;24609;48.316;16.174;2023-04-24T13:56:14;2.53;;;0.43;;
38859;SDS011;24609;48.316;16.174;2023-04-24T13:58:40;2.25;;;0.80;;
38859;SDS011;24609;48.316;16.174;2023-04-24T14:01:06;1.92;;;1.00;;
38859;SDS011;24609;48.316;16.174;2023-04-24T14:03:32;0.98;;;0.75;;
38859;SDS011;24609;48.316;16.174;2023-04-24T14:05:58;1.90;;;0.90;;
38859;SDS011;24609;48.316;16.174;2023-04-24T14:08:24;1.38;;;0.85;;
38859;SDS011;24609;48.316;16.174;2023-04-24T14:10:50;1.48;;;0.90;;
38859;SDS011;24609;48.316;16.174;2023-04-24T14:13:16;1.52;;;1.10;;
38859;SDS011;24609;48.316;16.174;2023-04-24T14:15:42;1.70;;;1.00;;
38859;SDS011;24609;48.316;16.174;2023-04-24T14:18:08;1.20;;;0.90;;
38859;SDS011;24609;48.316;16.174;2023-04-24T14:20:34;3.83;;;1.02;;
38859;SDS011;24609;48.316;16.174;2023-04-24T14:23:00;1.23;;;0.90;;
38859;SDS011;24609;48.316;16.174;2023-04-24T14:25:25;1.20;;;0.88;;
38859;SDS011;24609;48.316;16.174;2023-04-24T14:27:51;1.58;;;1.20;;
38859;SDS011;24609;48.316;16.174;2023-04-24T14:30:17;2.13;;;1.27;;
38859;SDS011;24609;48.316;16.174;2023-04-24T14:32:44;1.08;;;0.80;;
38859;SDS011;24609;48.316;16.174;2023-04-24T14:35:09;1.60;;;0.90;;
38859;SDS011;24609;48.316;16.174;2023-04-24T14:37:35;2.13;;;1.25;;
38859;SDS011;24609;48.316;16.174;2023-04-24T14:40:02;3.13;;;1.05;;
38859;SDS011;24609;48.316;16.174;2023-04-24T14:42:31;1.52;;;0.90;;
38859;SDS011;24609;48.316;16.174;2023-04-24T14:44:57;2.40;;;1.13;;
38859;SDS011;24609;48.316;16.174;2023-04-24T14:47:22;1.63;;;1.13;;
38859;SDS011;24609;48.316;16.174;2023-04-24T14:49:48;2.55;;;1.40;;